Air Navigation Services of Czech Republic
Airport: LKMT Updated:  21.01.2019 05:00:06  UTC
 METAR LKMT 21.01. 05:00 ...
METAR LKMT 210500Z 05005KT 1500 BR OVC003 M05/M06 Q1022 R04/31//95 NOSIG RMK REG QNH 1015=
 TAF LKMT 20.01. 23:00 ...
TAF LKMT 202300Z 2100/2206 05003KT 1800 BR SCT002      BECMG 2103/2105 0900 FZFG BKN004      TEMPO 2105/2108 0600 FZFG VV001      BECMG 2109/2111 6000 BKN012      TEMPO 2113/2120 SCT012      BECMG 2122/2200 19002KT 1500 BR SCT002      TEMPO 2200/2206 2500 BR SCT004=